National Weather Service Raw Text Product

Displaying AFOS PIL: TAFFOD Received: 2018-05-17 05:20 UTC


343 
FTUS43 KDMX 170520
TAFFOD
TAF
KFOD 170520Z 1706/1806 18003KT P6SM SKC
     FM171800 14008KT P6SM FEW240=

343 
FTUS43 KDMX 170520
TAFFOD
TAF
KFOD 170520Z 1706/1806 18003KT P6SM SKC
     FM171800 14008KT P6SM FEW240=